createdAt,value
2019-05-28T00:00:49.357Z,100500.34
2019-05-28T00:03:22.967Z,100501.73
2019-05-28T00:06:00.200Z,100498.20
2019-05-28T00:08:34.416Z,100493.77
2019-05-28T00:11:08.279Z,100492.92
2019-05-28T00:16:33.700Z,100489.08
2019-05-28T00:19:07.484Z,100491.77
2019-05-28T00:21:41.115Z,100487.04
2019-05-28T00:24:14.767Z,100490.02
2019-05-28T00:26:48.909Z,100487.87
2019-05-28T00:29:22.865Z,100488.81
2019-05-28T00:31:56.654Z,100485.45
2019-05-28T00:34:30.566Z,100480.13
2019-05-28T00:37:08.757Z,100483.03
2019-05-28T00:39:42.875Z,100482.14
2019-05-28T00:42:16.368Z,100480.66
2019-05-28T00:44:51.775Z,100477.47
2019-05-28T00:47:25.580Z,100482.16
2019-05-28T00:50:00.158Z,100483.41
2019-05-28T00:52:33.372Z,100480.17
2019-05-28T00:55:09.407Z,100478.52
2019-05-28T00:57:45.951Z,100476.00
2019-05-28T01:00:36.465Z,100475.73
2019-05-28T01:03:00.710Z,100481.02
2019-05-28T01:05:39.361Z,100480.42
2019-05-28T01:08:13.345Z,100477.08
2019-05-28T01:10:46.353Z,100473.31
2019-05-28T01:13:19.964Z,100469.52
2019-05-28T01:15:53.750Z,100458.71
2019-05-28T01:18:27.742Z,100458.80
2019-05-28T01:21:01.560Z,100462.55
2019-05-28T01:23:36.687Z,100469.36
2019-05-28T01:26:14.709Z,100464.19
2019-05-28T01:28:48.407Z,100461.03
2019-05-28T01:31:22.611Z,100461.59
2019-05-28T01:33:56.595Z,100461.79
2019-05-28T01:36:30.537Z,100460.40
2019-05-28T01:39:06.740Z,100461.20
2019-05-28T01:41:40.713Z,100464.14
2019-05-28T01:44:15.252Z,100466.12
2019-05-28T01:46:49.169Z,100466.53
2019-05-28T01:49:22.685Z,100466.03
2019-05-28T01:51:57.002Z,100471.06
2019-05-28T01:54:30.349Z,100474.20
2019-05-28T01:57:10.886Z,100477.39
2019-05-28T01:59:44.781Z,100473.26
2019-05-28T02:02:19.257Z,100465.05
2019-05-28T02:04:52.886Z,100475.63
2019-05-28T02:08:31.248Z,100478.64
2019-05-28T02:11:09.131Z,100477.54
2019-05-28T02:13:43.057Z,100485.13
2019-05-28T02:16:18.066Z,100485.56
2019-05-28T02:18:52.411Z,100479.52
2019-05-28T02:21:27.521Z,100478.28
2019-05-28T02:24:12.679Z,100481.53
2019-05-28T02:26:46.468Z,100479.33
2019-05-28T02:29:22.400Z,100476.73
2019-05-28T02:32:01.298Z,100471.81
2019-05-28T02:34:34.721Z,100473.83
2019-05-28T02:37:10.782Z,100476.22
2019-05-28T02:39:47.821Z,100472.48
2019-05-28T02:42:21.507Z,100479.39
2019-05-28T02:45:23.957Z,100478.77
2019-05-28T02:48:09.792Z,100475.67
2019-05-28T02:50:59.077Z,100480.37
2019-05-28T02:53:50.711Z,100487.59
2019-05-28T02:56:27.076Z,100483.63
2019-05-28T02:59:01.361Z,100487.03
2019-05-28T03:01:43.966Z,100483.03
2019-05-28T03:04:15.046Z,100488.01
2019-05-28T03:06:50.307Z,100495.94
2019-05-28T03:09:26.551Z,100495.82
2019-05-28T03:12:00.084Z,100496.44
2019-05-28T03:14:45.166Z,100483.98
2019-05-28T03:17:20.538Z,100488.92
2019-05-28T03:19:54.516Z,100499.72
2019-05-28T03:23:26.712Z,100499.49
2019-05-28T03:26:05.889Z,100495.94
2019-05-28T03:28:50.320Z,100500.03
2019-05-28T03:31:26.600Z,100496.48
2019-05-28T03:34:13.068Z,100499.61
2019-05-28T03:36:49.220Z,100501.14
2019-05-28T03:39:35.289Z,100501.13
2019-05-28T03:42:09.624Z,100497.34
2019-05-28T03:44:54.858Z,100504.17
2019-05-28T03:47:39.652Z,100500.31
2019-05-28T03:50:30.780Z,100496.51
2019-05-28T03:53:18.045Z,100504.08
2019-05-28T03:55:52.720Z,100497.13
2019-05-28T03:58:37.998Z,100498.28
2019-05-28T04:01:22.482Z,100498.34
2019-05-28T04:03:58.900Z,100508.66
2019-05-28T04:06:33.274Z,100507.12
2019-05-28T04:09:21.215Z,100509.99
2019-05-28T04:12:29.329Z,100512.40
2019-05-28T04:15:03.433Z,100514.48
2019-05-28T04:17:35.962Z,100522.41
2019-05-28T04:20:11.407Z,100524.36
2019-05-28T04:22:46.830Z,100520.96
2019-05-28T04:25:24.113Z,100525.64
2019-05-28T04:28:15.694Z,100520.11
2019-05-28T04:31:00.704Z,100517.02
2019-05-28T04:33:35.149Z,100522.20
2019-05-28T04:36:09.087Z,100521.44
2019-05-28T04:38:43.301Z,100529.31
2019-05-28T04:41:28.724Z,100521.72
2019-05-28T04:44:20.575Z,100523.11
2019-05-28T04:47:11.841Z,100522.91
2019-05-28T04:50:07.936Z,100533.89
2019-05-28T04:52:42.148Z,100531.11
2019-05-28T04:55:18.379Z,100531.41
2019-05-28T04:57:53.147Z,100536.00
2019-05-28T05:00:26.801Z,100529.36
2019-05-28T05:03:01.233Z,100529.57
2019-05-28T05:05:34.861Z,100529.16
2019-05-28T05:08:09.008Z,100524.86
2019-05-28T05:10:42.741Z,100526.95
2019-05-28T05:13:16.785Z,100530.73
2019-05-28T05:15:51.110Z,100531.49
2019-05-28T05:18:25.613Z,100534.53
2019-05-28T05:20:59.970Z,100537.22
2019-05-28T05:23:52.619Z,100538.25
2019-05-28T05:26:40.112Z,100538.55
2019-05-28T05:29:14.465Z,100545.98
2019-05-28T05:32:03.442Z,100549.07
2019-05-28T05:34:37.766Z,100549.73
2019-05-28T05:37:37.238Z,100553.26
2019-05-28T05:40:24.038Z,100549.39
2019-05-28T05:43:00.083Z,100544.32
2019-05-28T05:45:37.048Z,100544.58
2019-05-28T05:48:24.751Z,100543.42
2019-05-28T05:51:27.478Z,100546.08
2019-05-28T05:54:17.254Z,100547.28
2019-05-28T06:00:25.119Z,100548.30
2019-05-28T06:03:53.785Z,100549.39
2019-05-28T06:06:47.063Z,100546.83
2019-05-28T06:13:47.058Z,100553.09
2019-05-28T06:16:58.411Z,100559.80
2019-05-28T06:20:01.691Z,100559.16
2019-05-28T06:22:37.582Z,100554.92
2019-05-28T06:25:15.958Z,100558.26
2019-05-28T06:27:50.790Z,100562.46
2019-05-28T06:30:27.704Z,100564.70
2019-05-28T06:33:23.467Z,100566.95
2019-05-28T06:35:57.070Z,100562.46
2019-05-28T06:38:35.737Z,100556.11
2019-05-28T06:41:10.116Z,100559.93
2019-05-28T06:44:11.690Z,100560.92
2019-05-28T06:46:51.358Z,100559.41
2019-05-28T06:49:25.383Z,100563.05
2019-05-28T06:52:02.581Z,100570.17
2019-05-28T06:54:51.235Z,100566.88
2019-05-28T06:58:00.072Z,100567.60
2019-05-28T07:00:40.786Z,100570.30
2019-05-28T07:03:37.130Z,100574.88
2019-05-28T07:06:12.785Z,100570.30
2019-05-28T07:08:50.399Z,100570.36
2019-05-28T07:11:26.871Z,100569.27
2019-05-28T07:14:39.267Z,100563.94
2019-05-28T07:28:07.260Z,100568.91
2019-05-28T07:30:27.857Z,100570.08
2019-05-28T07:33:19.259Z,100576.89
2019-05-28T07:35:55.481Z,100578.21
2019-05-28T07:38:29.315Z,100581.07
2019-05-28T07:41:21.237Z,100569.78
2019-05-28T07:43:55.284Z,100578.38
2019-05-28T07:46:29.747Z,100570.77
2019-05-28T07:49:27.418Z,100572.45
2019-05-28T07:52:09.308Z,100572.81
2019-05-28T07:55:00.462Z,100578.65
2019-05-28T07:57:51.901Z,100579.27
2019-05-28T08:00:37.656Z,100579.89
2019-05-28T08:03:22.645Z,100580.26
2019-05-28T08:05:58.044Z,100584.09
2019-05-28T08:08:57.589Z,100587.14
2019-05-28T08:11:37.356Z,100586.91
2019-05-28T08:14:14.487Z,100583.13
2019-05-28T08:16:52.608Z,100591.27
2019-05-28T08:19:36.149Z,100590.41
2019-05-28T08:22:13.519Z,100587.13
2019-05-28T08:24:45.803Z,100586.07
2019-05-28T08:27:20.567Z,100581.47
2019-05-28T08:29:54.225Z,100588.16
2019-05-28T08:32:40.018Z,100602.47
2019-05-28T08:35:17.177Z,100602.45
2019-05-28T08:37:55.412Z,100602.18
2019-05-28T08:40:29.759Z,100604.66
2019-05-28T08:43:06.929Z,100602.53
2019-05-28T08:45:49.170Z,100607.17
2019-05-28T08:48:23.198Z,100608.27
2019-05-28T08:51:15.252Z,100601.27
2019-05-28T08:54:09.140Z,100599.12
2019-05-28T08:56:44.803Z,100609.92
2019-05-28T08:59:19.288Z,100610.73
2019-05-28T09:02:04.650Z,100607.27
2019-05-28T09:04:44.873Z,100608.65
2019-05-28T09:07:18.913Z,100603.22
2019-05-28T09:09:53.318Z,100604.30
2019-05-28T09:12:27.514Z,100597.59
2019-05-28T09:15:31.338Z,100593.51
2019-05-28T09:18:06.535Z,100597.33
2019-05-28T09:20:40.689Z,100605.19
2019-05-28T09:23:14.707Z,100602.19
2019-05-28T09:26:00.175Z,100608.94
2019-05-28T09:28:34.170Z,100614.58
2019-05-28T09:31:19.933Z,100618.64
2019-05-28T09:33:54.423Z,100612.97
2019-05-28T09:36:36.955Z,100610.55
2019-05-28T09:39:10.622Z,100603.02
2019-05-28T09:41:43.954Z,100603.02
2019-05-28T09:44:17.569Z,100602.70
2019-05-28T09:46:51.410Z,100602.36
2019-05-28T09:49:25.002Z,100596.39
2019-05-28T09:52:10.085Z,100605.03
2019-05-28T09:54:44.426Z,100602.63
2019-05-28T09:57:20.907Z,100605.36
2019-05-28T09:59:55.761Z,100611.34
2019-05-28T10:02:30.212Z,100617.39
2019-05-28T10:05:04.195Z,100617.39
2019-05-28T10:07:46.584Z,100612.77
2019-05-28T10:10:21.163Z,100620.93
2019-05-28T10:12:54.682Z,100613.03
2019-05-28T10:15:28.208Z,100617.91
2019-05-28T10:25:36.409Z,100627.95
2019-05-28T10:28:10.605Z,100627.95
2019-05-28T10:30:44.925Z,100628.47
2019-05-28T10:33:18.889Z,100627.86
2019-05-28T10:35:52.747Z,100622.98
2019-05-28T10:38:26.718Z,100634.06
2019-05-28T10:41:09.841Z,100629.69
2019-05-28T10:43:43.897Z,100629.69
2019-05-28T10:46:17.737Z,100635.00
2019-05-28T10:48:51.915Z,100642.07
2019-05-28T10:51:25.759Z,100645.02
2019-05-28T10:53:58.135Z,100647.73
2019-05-28T10:56:32.151Z,100642.19
2019-05-28T10:59:07.040Z,100651.35
2019-05-28T11:01:40.214Z,100656.69
2019-05-28T11:04:13.628Z,100642.91
2019-05-28T11:06:56.227Z,100653.13
2019-05-28T11:09:30.337Z,100652.19
2019-05-28T11:12:04.285Z,100655.57
2019-05-28T11:14:38.270Z,100661.27
2019-05-28T11:17:27.865Z,100663.69
2019-05-28T11:20:02.231Z,100659.06
2019-05-28T11:22:34.252Z,100670.50
2019-05-28T11:25:09.440Z,100661.66
2019-05-28T11:27:44.276Z,100661.66
2019-05-28T11:30:29.432Z,100655.56
2019-05-28T11:33:03.530Z,100661.31
2019-05-28T11:35:37.737Z,100662.27
2019-05-28T11:38:20.968Z,100660.36
2019-05-28T11:40:55.201Z,100662.92
2019-05-28T11:43:29.136Z,100662.83
2019-05-28T11:46:03.200Z,100667.59
2019-05-28T11:48:47.292Z,100662.25
2019-05-28T11:51:30.425Z,100664.19
2019-05-28T11:54:03.947Z,100670.73
2019-05-28T11:56:49.218Z,100665.22
2019-05-28T11:59:32.391Z,100669.31
2019-05-28T12:02:06.575Z,100675.33
2019-05-28T12:04:41.542Z,100677.36
2019-05-28T12:07:25.469Z,100681.48
2019-05-28T12:10:00.483Z,100671.92
2019-05-28T12:12:37.683Z,100681.92
2019-05-28T12:15:12.591Z,100680.41
2019-05-28T12:17:54.818Z,100686.30
2019-05-28T12:20:29.650Z,100686.30
2019-05-28T12:23:11.261Z,100683.30
2019-05-28T12:25:38.493Z,100683.52
2019-05-28T12:28:12.396Z,100682.38
2019-05-28T12:30:46.616Z,100688.84
2019-05-28T12:33:21.051Z,100681.63
2019-05-28T12:35:55.075Z,100685.02
2019-05-28T12:38:40.143Z,100680.19
2019-05-28T12:41:13.950Z,100687.97
2019-05-28T12:43:48.156Z,100695.91
2019-05-28T12:46:33.152Z,100691.30
2019-05-28T12:49:07.223Z,100695.16
2019-05-28T12:51:52.823Z,100700.78
2019-05-28T12:54:37.596Z,100699.44
2019-05-28T12:57:22.943Z,100701.13
2019-05-28T13:00:09.018Z,100701.66
2019-05-28T13:02:43.344Z,100698.82
2019-05-28T13:05:30.083Z,100701.92
2019-05-28T13:08:09.133Z,100691.37
2019-05-28T13:10:39.406Z,100698.78
2019-05-28T13:13:13.981Z,100706.91
2019-05-28T13:15:48.210Z,100701.41
2019-05-28T13:18:21.703Z,100701.41
2019-05-28T13:20:55.367Z,100695.39
2019-05-28T13:23:30.025Z,100701.30
2019-05-28T13:26:03.220Z,100694.89
2019-05-28T13:28:37.082Z,100698.80
2019-05-28T13:31:10.847Z,100703.21
2019-05-28T13:33:45.224Z,100707.90
2019-05-28T13:36:31.302Z,100704.08
2019-05-28T13:39:31.542Z,100701.89
2019-05-28T13:42:04.961Z,100708.09
2019-05-28T13:44:37.202Z,100716.56
2019-05-28T13:47:31.929Z,100716.56
2019-05-28T13:49:47.756Z,100718.45
2019-05-28T13:52:20.870Z,100722.14
2019-05-28T13:54:54.466Z,100724.67
2019-05-28T13:57:27.582Z,100726.31
2019-05-28T13:59:59.718Z,100727.30
2019-05-28T14:02:32.324Z,100726.97
2019-05-28T14:05:16.901Z,100727.69
2019-05-28T14:07:50.641Z,100726.90
2019-05-28T14:10:24.579Z,100731.57
2019-05-28T14:12:59.231Z,100738.37
2019-05-28T14:15:47.646Z,100748.58
2019-05-28T14:18:39.521Z,100730.84
2019-05-28T14:21:14.258Z,100754.89
2019-05-28T14:23:56.672Z,100749.53
2019-05-28T14:26:30.809Z,100750.72
2019-05-28T14:29:15.828Z,100760.05
2019-05-28T14:31:58.582Z,100761.63
2019-05-28T14:34:43.818Z,100758.03
2019-05-28T14:37:17.672Z,100759.09
2019-05-28T14:40:08.610Z,100758.81
2019-05-28T14:42:52.858Z,100760.38
2019-05-28T14:45:35.909Z,100769.03
2019-05-28T14:48:20.381Z,100769.49
2019-05-28T14:50:54.246Z,100775.80
2019-05-28T14:53:28.205Z,100781.05
2019-05-28T14:56:11.017Z,100790.98
2019-05-28T14:58:53.772Z,100800.77
2019-05-28T15:01:37.268Z,100799.67
2019-05-28T15:04:11.618Z,100805.69
2019-05-28T15:06:57.313Z,100807.89
2019-05-28T15:09:29.993Z,100811.69
2019-05-28T15:12:03.852Z,100817.39
2019-05-28T15:14:37.904Z,100819.83
2019-05-28T15:17:12.418Z,100817.62
2019-05-28T15:19:58.434Z,100821.98
2019-05-28T15:22:32.796Z,100820.05
2019-05-28T15:25:06.960Z,100826.03
2019-05-28T15:27:52.236Z,100829.50
2019-05-28T15:30:26.276Z,100828.08
2019-05-28T15:33:17.932Z,100826.77
2019-05-28T15:35:56.127Z,100831.51
2019-05-28T15:38:29.187Z,100839.38
2019-05-28T15:41:02.580Z,100837.77
2019-05-28T15:43:37.110Z,100849.67
2019-05-28T15:46:11.302Z,100855.27
2019-05-28T15:48:45.315Z,100858.06
2019-05-28T15:51:30.580Z,100864.02
2019-05-28T15:54:04.460Z,100863.06
2019-05-28T15:56:38.562Z,100864.39
2019-05-28T16:09:55.985Z,100873.01
2019-05-28T16:12:23.993Z,100883.55
2019-05-28T16:14:58.293Z,100880.78
2019-05-28T16:17:46.019Z,100882.48
2019-05-28T16:20:37.100Z,100891.00
2019-05-28T16:23:23.531Z,100892.89
2019-05-28T16:25:57.558Z,100893.95
2019-05-28T16:28:31.580Z,100893.95
2019-05-28T16:31:12.574Z,100905.88
2019-05-28T16:33:42.396Z,100910.80
2019-05-28T16:36:16.484Z,100904.06
2019-05-28T16:38:49.827Z,100911.94
2019-05-28T16:41:23.336Z,100911.94
2019-05-28T16:43:57.038Z,100912.98
2019-05-28T16:46:30.920Z,100917.05
2019-05-28T16:49:04.239Z,100920.27
2019-05-28T16:51:38.172Z,100931.72
2019-05-28T16:54:30.820Z,100940.11
2019-05-28T16:57:04.355Z,100939.28
2019-05-28T16:59:38.569Z,100944.86
2019-05-28T17:02:12.838Z,100952.08
2019-05-28T17:04:58.368Z,100941.27
2019-05-28T17:07:32.304Z,100941.27
2019-05-28T17:10:06.766Z,100961.38
2019-05-28T17:12:52.141Z,100951.87
2019-05-28T17:15:26.150Z,100957.90
2019-05-28T17:18:18.255Z,100947.53
2019-05-28T17:21:03.551Z,100958.08
2019-05-28T17:23:37.736Z,100961.61
2019-05-28T17:26:12.131Z,100965.47
2019-05-28T17:28:58.164Z,100961.82
2019-05-28T17:31:32.686Z,100968.27
2019-05-28T17:34:06.882Z,100971.94
2019-05-28T17:36:52.361Z,100975.25
2019-05-28T17:39:37.771Z,100985.03
2019-05-28T17:42:22.634Z,100982.92
2019-05-28T17:44:56.220Z,100993.94
2019-05-28T17:47:30.417Z,100993.41
2019-05-28T17:50:03.938Z,101000.45
2019-05-28T17:52:51.571Z,101004.95
2019-05-28T17:55:24.495Z,101006.69
2019-05-28T17:57:57.723Z,101011.16
2019-05-28T18:00:31.830Z,101021.90
2019-05-28T18:03:24.484Z,101028.39
2019-05-28T18:05:58.780Z,101035.06
2019-05-28T18:08:44.364Z,101029.21
2019-05-28T18:11:30.186Z,101038.33
2019-05-28T18:14:04.161Z,101043.62
2019-05-28T18:16:48.938Z,101048.17
2019-05-28T18:19:23.361Z,101062.72
2019-05-28T18:22:07.870Z,101063.94
2019-05-28T18:24:41.560Z,101073.99
2019-05-28T18:27:16.255Z,101081.69
2019-05-28T18:29:50.403Z,101088.75
2019-05-28T18:32:24.592Z,101090.12
2019-05-28T18:35:09.164Z,101103.12
2019-05-28T18:37:43.691Z,101108.97
2019-05-28T18:40:19.442Z,101114.70
2019-05-28T18:42:53.568Z,101112.01
2019-05-28T18:45:27.938Z,101111.36
2019-05-28T18:48:10.857Z,101124.20
2019-05-28T18:50:57.200Z,101127.61
2019-05-28T18:53:42.742Z,101123.45
2019-05-28T18:56:18.237Z,101135.38
2019-05-28T18:59:07.303Z,101139.86
2019-05-28T19:01:51.491Z,101136.22
2019-05-28T19:04:38.052Z,101154.05
2019-05-28T19:07:12.681Z,101154.66
2019-05-28T19:09:59.740Z,101154.66
2019-05-28T19:12:33.725Z,101161.41
2019-05-28T19:15:07.638Z,101168.48
2019-05-28T19:17:41.233Z,101167.32
2019-05-28T19:20:15.013Z,101182.20
2019-05-28T19:22:48.824Z,101179.02
2019-05-28T19:25:23.524Z,101181.03
2019-05-28T19:27:57.785Z,101182.02
2019-05-28T19:30:43.275Z,101177.28
2019-05-28T19:33:28.722Z,101183.08
2019-05-28T19:36:13.710Z,101191.94
2019-05-28T19:38:49.353Z,101199.77
2019-05-28T19:41:22.860Z,101203.14
2019-05-28T19:43:56.563Z,101210.66
2019-05-28T19:46:30.618Z,101213.72
2019-05-28T19:49:04.524Z,101217.39
2019-05-28T19:51:49.853Z,101226.89
2019-05-28T19:54:23.574Z,101233.63
2019-05-28T19:57:14.724Z,101234.46
2019-05-28T20:00:06.271Z,101242.55
2019-05-28T20:02:41.110Z,101244.05
2019-05-28T20:05:32.375Z,101252.00
2019-05-28T20:08:17.712Z,101254.78
2019-05-28T20:10:53.027Z,101262.63
2019-05-28T20:13:44.710Z,101264.66
2019-05-28T20:16:29.527Z,101262.36
2019-05-28T20:19:03.339Z,101267.83
2019-05-28T20:21:37.390Z,101270.14
2019-05-28T20:24:11.152Z,101270.30
2019-05-28T20:26:45.640Z,101274.19
2019-05-28T20:29:21.655Z,101279.61
2019-05-28T20:32:13.914Z,101279.27
2019-05-28T20:34:47.890Z,101279.38
2019-05-28T20:37:45.016Z,101284.09
2019-05-28T20:40:18.839Z,101288.19
2019-05-28T20:42:53.230Z,101300.80
2019-05-28T20:46:09.003Z,101307.59
2019-05-28T20:49:00.657Z,101311.95
2019-05-28T20:51:34.718Z,101311.55
2019-05-28T20:54:08.282Z,101316.55
2019-05-28T20:56:42.480Z,101320.13
2019-05-28T20:59:43.973Z,101333.30
2019-05-28T21:02:19.249Z,101333.11
2019-05-28T21:04:54.472Z,101333.33
2019-05-28T21:07:29.137Z,101333.55
2019-05-28T21:20:37.986Z,101351.81
2019-05-28T21:23:12.206Z,101347.80
2019-05-28T21:25:46.003Z,101354.65
2019-05-28T21:28:19.953Z,101353.23
2019-05-28T21:30:54.665Z,101358.96
2019-05-28T21:33:28.797Z,101359.00
2019-05-28T21:36:11.593Z,101365.19
2019-05-28T21:38:55.265Z,101365.54
2019-05-28T21:41:28.825Z,101374.89
2019-05-28T21:44:03.089Z,101370.95
2019-05-28T21:46:48.561Z,101378.17
2019-05-28T21:49:23.787Z,101372.55
2019-05-28T21:51:58.872Z,101375.98
2019-05-28T21:54:32.808Z,101386.73
2019-05-28T21:57:06.073Z,101387.13
2019-05-28T21:59:40.341Z,101392.01
2019-05-28T22:02:14.107Z,101396.09
2019-05-28T22:04:47.854Z,101403.92
2019-05-28T22:07:33.260Z,101398.31
2019-05-28T22:10:17.044Z,101404.84
2019-05-28T22:13:16.681Z,101405.98
2019-05-28T22:15:51.114Z,101412.81
2019-05-28T22:18:25.219Z,101412.00
2019-05-28T22:21:09.748Z,101418.19
2019-05-28T22:23:42.673Z,101421.41
2019-05-28T22:26:16.091Z,101422.65
2019-05-28T22:28:59.389Z,101422.63
2019-05-28T22:31:33.320Z,101423.08
2019-05-28T22:34:07.466Z,101431.56
2019-05-28T22:36:49.557Z,101428.98
2019-05-28T22:39:23.787Z,101440.23
2019-05-28T22:42:07.915Z,101437.55
2019-05-28T22:44:42.236Z,101442.30
2019-05-28T22:47:16.229Z,101444.45
2019-05-28T22:49:50.025Z,101446.53
2019-05-28T22:52:23.652Z,101453.42
2019-05-28T22:54:57.808Z,101452.50
2019-05-28T22:57:42.798Z,101457.55
2019-05-28T23:00:27.490Z,101461.19
2019-05-28T23:03:12.631Z,101461.25
2019-05-28T23:06:03.882Z,101459.80
2019-05-28T23:08:49.507Z,101459.80
2019-05-28T23:11:22.911Z,101467.84
2019-05-28T23:13:58.368Z,101472.77
2019-05-28T23:16:50.025Z,101472.55
2019-05-28T23:19:23.756Z,101471.22
2019-05-28T23:21:57.538Z,101479.03
2019-05-28T23:24:31.598Z,101478.33
2019-05-28T23:27:07.646Z,101480.80
2019-05-28T23:29:41.871Z,101483.74
2019-05-28T23:32:15.334Z,101485.88
2019-05-28T23:34:49.740Z,101481.84
2019-05-28T23:37:25.412Z,101488.41
2019-05-28T23:39:58.971Z,101491.84
2019-05-28T23:42:33.095Z,101494.09
2019-05-28T23:45:07.817Z,101497.75
2019-05-28T23:47:42.120Z,101498.94
2019-05-28T23:50:27.514Z,101503.05
2019-05-28T23:53:13.729Z,101504.84
2019-05-28T23:55:47.950Z,101510.80
2019-05-28T23:58:22.486Z,101513.73
